Time;durP1;ratioP1;P1;durP2;ratioP2;P2;SDS_P1;SDS_P2;PMS_P1;PMS_P2;Temp;Humidity;BMP_temperature;BMP_pressure;BME280_temperature;BME280_humidity;BME280_pressure;Samples;Min_cycle;Max_cycle;Signal;HPM_P1;HPM_P2
2023/01/25 00:00:51;;;;;;;3.63;1.77;;;;;;;;;;5031845;28;20033;-66
2023/01/25 00:03:18;;;;;;;6.73;1.77;;;;;;;;;;5032610;28;20074;-66
2023/01/25 00:05:45;;;;;;;2.47;1.70;;;;;;;;;;5032685;28;20029;-66
2023/01/25 00:08:11;;;;;;;2.87;1.70;;;;;;;;;;5031373;28;20069;-66
2023/01/25 00:10:38;;;;;;;5.60;1.70;;;;;;;;;;5027287;28;20112;-67
2023/01/25 00:13:05;;;;;;;2.37;1.67;;;;;;;;;;5026075;28;20021;-67
2023/01/25 00:15:32;;;;;;;4.57;1.83;;;;;;;;;;5024025;28;20393;-66
2023/01/25 00:17:59;;;;;;;4.10;2.33;;;;;;;;;;5024880;28;20029;-66
2023/01/25 00:20:26;;;;;;;4.37;1.73;;;;;;;;;;5026718;28;20037;-66
2023/01/25 00:22:53;;;;;;;3.60;1.70;;;;;;;;;;5030856;28;20653;-66
2023/01/25 00:25:20;;;;;;;5.47;2.37;;;;;;;;;;5033335;28;20022;-66
2023/01/25 00:27:48;;;;;;;3.33;1.77;;;;;;;;;;5040042;28;20045;-66
2023/01/25 00:30:15;;;;;;;2.90;1.50;;;;;;;;;;5031903;28;20037;-66
2023/01/25 00:33:02;;;;;;;6.70;1.73;;;;;;;;;;5027615;28;20021;-66
2023/01/25 00:35:32;;;;;;;4.93;1.67;;;;;;;;;;5006317;28;20048;-66
2023/01/25 00:38:06;;;;;;;6.27;2.30;;;;;;;;;;5027523;28;20094;-67
2023/01/25 00:40:33;;;;;;;2.37;1.47;;;;;;;;;;5014536;28;20038;-66
2023/01/25 00:43:00;;;;;;;3.50;1.93;;;;;;;;;;5012669;28;20026;-66
2023/01/25 00:45:27;;;;;;;3.90;2.13;;;;;;;;;;5012383;28;20021;-65
2023/01/25 00:47:55;;;;;;;8.90;2.97;;;;;;;;;;5020245;28;20087;-66
2023/01/25 00:50:22;;;;;;;3.10;1.87;;;;;;;;;;5032475;28;20354;-66
2023/01/25 00:52:49;;;;;;;5.93;1.63;;;;;;;;;;5031949;28;20022;-66
2023/01/25 00:55:17;;;;;;;4.70;1.93;;;;;;;;;;5027805;28;20021;-67
2023/01/25 00:57:44;;;;;;;3.40;1.80;;;;;;;;;;5031511;28;20387;-67
2023/01/25 01:00:11;;;;;;;4.37;2.40;;;;;;;;;;5031366;28;20025;-66
2023/01/25 01:02:38;;;;;;;3.27;1.77;;;;;;;;;;5031233;28;20052;-66
2023/01/25 01:05:05;;;;;;;2.27;1.67;;;;;;;;;;5035409;28;20539;-65
2023/01/25 01:07:32;;;;;;;5.27;2.27;;;;;;;;;;5036279;28;20113;-66
2023/01/25 01:09:59;;;;;;;2.77;1.80;;;;;;;;;;5036286;28;20025;-67
2023/01/25 01:12:26;;;;;;;2.90;1.70;;;;;;;;;;5036363;28;20092;-66
2023/01/25 01:14:53;;;;;;;4.23;2.13;;;;;;;;;;5035965;28;20025;-66
2023/01/25 01:17:19;;;;;;;3.43;1.90;;;;;;;;;;5031153;28;20353;-66
2023/01/25 01:19:46;;;;;;;3.97;1.80;;;;;;;;;;5030974;28;20029;-66
2023/01/25 01:22:13;;;;;;;3.90;2.03;;;;;;;;;;5030404;28;20032;-65
2023/01/25 01:24:41;;;;;;;17.20;1.67;;;;;;;;;;5031170;28;20492;-66
2023/01/25 01:27:08;;;;;;;4.53;1.90;;;;;;;;;;5050512;28;20478;-65
2023/01/25 01:29:34;;;;;;;3.30;2.27;;;;;;;;;;5055828;28;20029;-65
2023/01/25 01:32:01;;;;;;;4.93;2.27;;;;;;;;;;5055729;28;20052;-66
2023/01/25 01:34:28;;;;;;;3.67;2.07;;;;;;;;;;5036899;28;20026;-66
2023/01/25 01:36:55;;;;;;;4.83;2.30;;;;;;;;;;5034712;28;20114;-66
2023/01/25 01:39:23;;;;;;;2.77;1.93;;;;;;;;;;5030745;28;20171;-65
2023/01/25 01:41:50;;;;;;;5.23;2.30;;;;;;;;;;5030599;28;20030;-66
2023/01/25 01:44:18;;;;;;;2.73;1.43;;;;;;;;;;5029825;28;20079;-66
2023/01/25 01:46:49;;;;;;;2.07;1.33;;;;;;;;;;5028726;28;20025;-66
2023/01/25 01:49:27;;;;;;;2.37;1.20;;;;;;;;;;5033590;28;20164;-67
2023/01/25 01:52:02;;;;;;;2.70;1.57;;;;;;;;;;5035025;28;20074;-66
2023/01/25 01:54:34;;;;;;;1.80;1.43;;;;;;;;;;5035283;28;20096;-66
2023/01/25 01:57:13;;;;;;;1.93;1.40;;;;;;;;;;5034990;28;20021;-66
2023/01/25 02:00:01;;;;;;;1.83;1.20;;;;;;;;;;5035229;28;20025;-65
2023/01/25 02:02:28;;;;;;;3.87;2.00;;;;;;;;;;5030108;28;20026;-66
2023/01/25 02:04:57;;;;;;;2.57;1.17;;;;;;;;;;5030061;28;20025;-67
2023/01/25 02:07:27;;;;;;;2.13;1.33;;;;;;;;;;5029020;28;20044;-66
2023/01/25 02:09:54;;;;;;;2.97;1.60;;;;;;;;;;5029909;28;20029;-65
2023/01/25 02:12:22;;;;;;;2.53;1.17;;;;;;;;;;5034974;28;20029;-65
2023/01/25 02:14:50;;;;;;;1.70;1.30;;;;;;;;;;5034359;28;20059;-65
2023/01/25 02:17:19;;;;;;;5.73;2.50;;;;;;;;;;5034496;28;20443;-66
2023/01/25 02:19:55;;;;;;;1.90;1.57;;;;;;;;;;5034868;28;20419;-66
2023/01/25 02:22:24;;;;;;;7.60;2.33;;;;;;;;;;5034117;28;20143;-65
2023/01/25 02:25:11;;;;;;;2.83;1.67;;;;;;;;;;5029479;28;20029;-65
2023/01/25 02:27:44;;;;;;;2.50;1.27;;;;;;;;;;5009779;28;20436;-66
2023/01/25 02:30:11;;;;;;;3.33;1.50;;;;;;;;;;5028881;28;20412;-65
2023/01/25 02:32:38;;;;;;;25.73;3.40;;;;;;;;;;5030609;28;20411;-65
2023/01/25 02:35:05;;;;;;;6.17;2.00;;;;;;;;;;5034560;28;20080;-65
2023/01/25 02:37:32;;;;;;;4.97;1.40;;;;;;;;;;5034678;28;20423;-65
2023/01/25 02:39:59;;;;;;;2.93;1.93;;;;;;;;;;5033767;28;20037;-65
2023/01/25 02:42:30;;;;;;;4.17;2.23;;;;;;;;;;5033999;28;20498;-65
2023/01/25 02:44:56;;;;;;;5.70;2.40;;;;;;;;;;5032850;28;20052;-66
2023/01/25 02:47:23;;;;;;;5.53;2.23;;;;;;;;;;5029241;28;20448;-65
2023/01/25 02:49:50;;;;;;;2.63;1.63;;;;;;;;;;5029309;28;20033;-65
2023/01/25 02:52:17;;;;;;;20.07;3.23;;;;;;;;;;5029389;28;20079;-65
2023/01/25 02:54:44;;;;;;;5.47;3.50;;;;;;;;;;5027832;28;20025;-64
2023/01/25 02:57:11;;;;;;;6.17;2.53;;;;;;;;;;5031203;28;20523;-64
2023/01/25 02:59:38;;;;;;;4.47;2.60;;;;;;;;;;5033880;28;20075;-64
2023/01/25 03:02:04;;;;;;;7.27;2.47;;;;;;;;;;5033927;28;20026;-64
2023/01/25 03:04:31;;;;;;;1.93;1.50;;;;;;;;;;5033626;28;20022;-64
2023/01/25 03:06:58;;;;;;;3.83;2.33;;;;;;;;;;5033346;28;20476;-64
2023/01/25 03:09:25;;;;;;;4.67;2.63;;;;;;;;;;5028444;28;20029;-65
2023/01/25 03:11:52;;;;;;;3.40;2.17;;;;;;;;;;5028499;28;20346;-63
2023/01/25 03:14:18;;;;;;;6.40;2.67;;;;;;;;;;5028489;28;20087;-63
2023/01/25 03:16:45;;;;;;;14.37;3.40;;;;;;;;;;5028283;28;20029;-63
2023/01/25 03:19:12;;;;;;;4.87;2.57;;;;;;;;;;5032212;28;20080;-64
2023/01/25 03:21:40;;;;;;;5.03;2.87;;;;;;;;;;5033513;28;20030;-63
2023/01/25 03:24:10;;;;;;;2.67;1.93;;;;;;;;;;5033539;28;20020;-63
2023/01/25 03:27:09;;;;;;;6.87;2.37;;;;;;;;;;5033055;28;20045;-63
2023/01/25 03:29:23;;;;;;;5.70;2.80;;;;;;;;;;5032114;28;20083;-63
2023/01/25 03:31:50;;;;;;;6.60;3.20;;;;;;;;;;5028082;28;20029;-62
2023/01/25 03:34:17;;;;;;;1.97;1.63;;;;;;;;;;5028096;28;20029;-64
2023/01/25 03:36:43;;;;;;;2.83;1.93;;;;;;;;;;5027983;28;20018;-63
2023/01/25 03:39:10;;;;;;;4.17;2.30;;;;;;;;;;5026582;28;20028;-63
2023/01/25 03:41:37;;;;;;;7.30;2.63;;;;;;;;;;5030474;28;20377;-63
2023/01/25 03:44:04;;;;;;;4.20;2.70;;;;;;;;;;5031778;28;20124;-63
2023/01/25 03:46:31;;;;;;;3.40;2.23;;;;;;;;;;5032972;28;20092;-63
2023/01/25 03:48:58;;;;;;;1.33;1.23;;;;;;;;;;5032913;28;20480;-64
2023/01/25 03:51:25;;;;;;;6.37;2.67;;;;;;;;;;5032434;28;20476;-63
2023/01/25 03:53:52;;;;;;;3.27;2.27;;;;;;;;;;5027694;28;20369;-63
2023/01/25 03:56:19;;;;;;;2.33;1.20;;;;;;;;;;5027566;28;20025;-63
2023/01/25 03:58:46;;;;;;;23.33;3.17;;;;;;;;;;5027829;28;20029;-63
2023/01/25 04:01:13;;;;;;;22.97;3.00;;;;;;;;;;5027504;28;20500;-63
2023/01/25 04:03:40;;;;;;;5.93;1.57;;;;;;;;;;5031958;28;20367;-62
2023/01/25 04:06:07;;;;;;;1.90;1.40;;;;;;;;;;5032829;28;20013;-63
2023/01/25 04:08:34;;;;;;;2.90;1.77;;;;;;;;;;5032641;28;20040;-63
2023/01/25 04:11:02;;;;;;;2.30;1.37;;;;;;;;;;5032142;28;20354;-63
2023/01/25 04:13:29;;;;;;;1.30;1.07;;;;;;;;;;5032816;28;20515;-63
2023/01/25 04:15:56;;;;;;;8.77;2.60;;;;;;;;;;5027499;28;20031;-63
2023/01/25 04:18:23;;;;;;;10.47;2.47;;;;;;;;;;5027675;28;20431;-63
2023/01/25 04:20:53;;;;;;;2.20;1.57;;;;;;;;;;5027239;28;20353;-62
2023/01/25 04:23:20;;;;;;;5.47;1.63;;;;;;;;;;5027351;28;20049;-63
2023/01/25 04:25:57;;;;;;;1.80;1.20;;;;;;;;;;5031843;28;20413;-62
2023/01/25 04:28:24;;;;;;;3.23;2.37;;;;;;;;;;5032516;28;20095;-62
2023/01/25 04:30:51;;;;;;;4.23;1.97;;;;;;;;;;5031618;28;20376;-62
2023/01/25 04:33:17;;;;;;;3.03;1.70;;;;;;;;;;5032489;28;20048;-62
2023/01/25 04:35:44;;;;;;;2.47;1.23;;;;;;;;;;5032364;28;20067;-62
2023/01/25 04:38:11;;;;;;;2.40;1.70;;;;;;;;;;5026631;28;20030;-62
2023/01/25 04:40:38;;;;;;;4.23;2.67;;;;;;;;;;5027291;28;20112;-62
2023/01/25 04:43:07;;;;;;;2.90;2.13;;;;;;;;;;5026752;28;20053;-62
2023/01/25 04:45:35;;;;;;;3.73;2.17;;;;;;;;;;5026982;28;20033;-62
2023/01/25 04:48:02;;;;;;;11.90;2.00;;;;;;;;;;5031235;28;20041;-62
2023/01/25 04:50:29;;;;;;;2.17;1.67;;;;;;;;;;5032149;28;20089;-63
2023/01/25 04:52:56;;;;;;;23.30;3.73;;;;;;;;;;5032329;28;20025;-62
2023/01/25 04:55:23;;;;;;;11.17;2.87;;;;;;;;;;5031872;28;20085;-64
2023/01/25 04:57:50;;;;;;;3.90;2.43;;;;;;;;;;5031767;28;20047;-64
2023/01/25 05:00:17;;;;;;;3.53;1.67;;;;;;;;;;5027033;28;20502;-65
2023/01/25 05:02:44;;;;;;;2.47;1.77;;;;;;;;;;5026713;28;21905;-64
2023/01/25 05:05:11;;;;;;;4.03;2.10;;;;;;;;;;5027164;28;20182;-64
2023/01/25 05:07:37;;;;;;;5.97;2.47;;;;;;;;;;5026792;28;20044;-66
2023/01/25 05:10:05;;;;;;;3.73;2.40;;;;;;;;;;5030789;28;20037;-63
2023/01/25 05:12:31;;;;;;;1.77;1.30;;;;;;;;;;5031837;28;20024;-63
2023/01/25 05:14:58;;;;;;;7.47;2.77;;;;;;;;;;5011852;28;20022;-64
2023/01/25 05:17:25;;;;;;;2.80;1.90;;;;;;;;;;5018673;28;20539;-64
2023/01/25 05:19:52;;;;;;;1.47;1.17;;;;;;;;;;5031861;28;20478;-64
2023/01/25 05:22:22;;;;;;;7.13;2.60;;;;;;;;;;5027782;28;20025;-63
2023/01/25 05:24:48;;;;;;;4.13;1.27;;;;;;;;;;5026889;28;20030;-65
2023/01/25 05:27:17;;;;;;;1.77;1.43;;;;;;;;;;5026429;28;20037;-63
2023/01/25 05:29:44;;;;;;;3.67;1.93;;;;;;;;;;5026721;28;20048;-63
2023/01/25 05:32:12;;;;;;;3.60;1.73;;;;;;;;;;5026576;28;20368;-65
2023/01/25 05:34:38;;;;;;;8.70;2.07;;;;;;;;;;5031550;28;20032;-65
2023/01/25 05:37:06;;;;;;;2.87;1.63;;;;;;;;;;5031705;28;20025;-65
2023/01/25 05:39:33;;;;;;;2.53;1.80;;;;;;;;;;5031882;28;20025;-65
2023/01/25 05:42:00;;;;;;;3.20;1.30;;;;;;;;;;5031502;28;20038;-65
2023/01/25 05:44:26;;;;;;;2.63;1.70;;;;;;;;;;5032172;28;20098;-65
2023/01/25 05:46:53;;;;;;;1.80;1.30;;;;;;;;;;5030148;28;20472;-65
2023/01/25 05:49:20;;;;;;;3.87;2.17;;;;;;;;;;5029959;28;20104;-65
2023/01/25 05:51:47;;;;;;;2.90;1.83;;;;;;;;;;5029589;28;20087;-64
2023/01/25 05:54:18;;;;;;;9.97;2.47;;;;;;;;;;5012878;28;20350;-65
2023/01/25 05:56:45;;;;;;;3.03;2.00;;;;;;;;;;5015505;28;20033;-64
2023/01/25 05:59:12;;;;;;;3.23;1.97;;;;;;;;;;5015317;28;20520;-65
2023/01/25 06:01:39;;;;;;;2.77;2.13;;;;;;;;;;5015243;28;20033;-66
2023/01/25 06:04:06;;;;;;;5.77;2.20;;;;;;;;;;5034120;28;20422;-64
2023/01/25 06:06:33;;;;;;;1.63;1.50;;;;;;;;;;5032134;28;20037;-64
2023/01/25 06:09:01;;;;;;;6.77;3.00;;;;;;;;;;5029510;28;20033;-64
2023/01/25 06:11:28;;;;;;;2.87;2.17;;;;;;;;;;5029728;28;20018;-64
2023/01/25 06:13:54;;;;;;;10.73;1.93;;;;;;;;;;5029287;28;20376;-65
2023/01/25 06:16:21;;;;;;;4.57;2.03;;;;;;;;;;5031769;28;20030;-65
2023/01/25 06:18:48;;;;;;;2.63;2.03;;;;;;;;;;5034670;28;20080;-64
2023/01/25 06:21:14;;;;;;;1.93;1.37;;;;;;;;;;5034769;28;20377;-65
2023/01/25 06:23:41;;;;;;;3.93;1.30;;;;;;;;;;5034357;28;20047;-64
2023/01/25 06:26:10;;;;;;;3.33;1.97;;;;;;;;;;5034103;28;20026;-64
2023/01/25 06:28:37;;;;;;;4.37;2.57;;;;;;;;;;5032044;28;20155;-65
2023/01/25 06:31:14;;;;;;;6.33;1.83;;;;;;;;;;5028980;28;20561;-65
2023/01/25 06:33:41;;;;;;;6.00;2.33;;;;;;;;;;5029164;28;20025;-64
2023/01/25 06:36:12;;;;;;;4.17;2.57;;;;;;;;;;5029391;28;20025;-65
2023/01/25 06:38:39;;;;;;;9.10;2.87;;;;;;;;;;5031428;28;20029;-64
2023/01/25 06:41:07;;;;;;;3.57;2.37;;;;;;;;;;5033953;28;20044;-65
2023/01/25 06:43:34;;;;;;;4.07;2.60;;;;;;;;;;5034282;28;20052;-64
2023/01/25 06:46:02;;;;;;;4.60;2.17;;;;;;;;;;5034255;28;20102;-64
2023/01/25 06:48:29;;;;;;;6.47;2.73;;;;;;;;;;5034179;28;20033;-64
2023/01/25 06:51:00;;;;;;;2.53;1.87;;;;;;;;;;5031259;28;20075;-64
2023/01/25 06:53:27;;;;;;;2.90;1.93;;;;;;;;;;5028651;28;20113;-64
2023/01/25 06:56:04;;;;;;;1.70;1.40;;;;;;;;;;5028665;28;20017;-64
2023/01/25 06:58:31;;;;;;;3.07;2.10;;;;;;;;;;5027163;28;20033;-64
2023/01/25 07:01:04;;;;;;;3.30;1.97;;;;;;;;;;5030913;28;20068;-64
2023/01/25 07:03:31;;;;;;;5.33;2.17;;;;;;;;;;5033925;28;20472;-64
2023/01/25 07:05:58;;;;;;;1.00;0.90;;;;;;;;;;5034022;28;20087;-64
2023/01/25 07:08:25;;;;;;;2.27;1.90;;;;;;;;;;5033119;28;20033;-64
2023/01/25 07:10:59;;;;;;;6.07;1.43;;;;;;;;;;5033802;28;20036;-65
2023/01/25 07:13:27;;;;;;;2.73;1.83;;;;;;;;;;5030930;28;20034;-64
2023/01/25 07:15:57;;;;;;;2.17;1.20;;;;;;;;;;5028419;28;20803;-64
2023/01/25 07:18:24;;;;;;;3.60;1.23;;;;;;;;;;5027859;28;20041;-65
2023/01/25 07:20:51;;;;;;;3.90;2.77;;;;;;;;;;5028174;28;20349;-64
2023/01/25 07:23:18;;;;;;;1.13;1.00;;;;;;;;;;5030354;28;20046;-64
2023/01/25 07:25:49;;;;;;;1.83;1.53;;;;;;;;;;5033535;28;21284;-64
2023/01/25 07:28:17;;;;;;;1.43;1.20;;;;;;;;;;5033275;28;20056;-64
2023/01/25 07:30:44;;;;;;;1.97;1.17;;;;;;;;;;5033531;28;20545;-64
2023/01/25 07:33:11;;;;;;;4.27;2.23;;;;;;;;;;5033120;28;20025;-66
2023/01/25 07:35:38;;;;;;;2.80;2.03;;;;;;;;;;5030329;28;20030;-65
2023/01/25 07:38:04;;;;;;;1.73;1.33;;;;;;;;;;5027793;28;20026;-64
2023/01/25 07:40:31;;;;;;;3.03;2.30;;;;;;;;;;5027769;28;20037;-64
2023/01/25 07:42:58;;;;;;;10.17;2.70;;;;;;;;;;5028350;28;20400;-65
2023/01/25 07:45:29;;;;;;;2.27;1.73;;;;;;;;;;5029597;28;20036;-64
2023/01/25 07:47:59;;;;;;;2.53;1.33;;;;;;;;;;5033008;28;20026;-64
2023/01/25 07:50:29;;;;;;;2.90;1.97;;;;;;;;;;5033204;28;20376;-64
2023/01/25 07:52:55;;;;;;;1.30;1.07;;;;;;;;;;5033050;28;20384;-64
2023/01/25 07:55:22;;;;;;;4.03;2.63;;;;;;;;;;5032518;28;20095;-64
2023/01/25 07:57:49;;;;;;;3.53;2.33;;;;;;;;;;5030306;28;20507;-64
2023/01/25 08:00:16;;;;;;;3.10;1.90;;;;;;;;;;5027562;28;20029;-64
2023/01/25 08:02:42;;;;;;;6.20;2.43;;;;;;;;;;5027758;28;20117;-64
2023/01/25 08:05:09;;;;;;;4.17;2.53;;;;;;;;;;5026232;28;20035;-64
2023/01/25 08:07:36;;;;;;;3.17;2.37;;;;;;;;;;5028916;28;20033;-64
2023/01/25 08:10:03;;;;;;;2.77;2.03;;;;;;;;;;5032450;28;20029;-64
2023/01/25 08:12:30;;;;;;;6.10;3.07;;;;;;;;;;5032692;28;20452;-64
2023/01/25 08:14:56;;;;;;;1.93;1.63;;;;;;;;;;5032234;28;20026;-64
2023/01/25 08:17:23;;;;;;;2.87;1.83;;;;;;;;;;5032506;28;20032;-64
2023/01/25 08:19:50;;;;;;;2.90;1.47;;;;;;;;;;5030351;28;20052;-64
2023/01/25 08:22:17;;;;;;;4.17;2.63;;;;;;;;;;5027430;28;20029;-64
2023/01/25 08:24:43;;;;;;;4.33;2.30;;;;;;;;;;5026636;28;20419;-64
2023/01/25 08:27:10;;;;;;;3.40;2.53;;;;;;;;;;5027095;28;20542;-63
2023/01/25 08:29:37;;;;;;;1.73;1.33;;;;;;;;;;5028157;28;20033;-64
2023/01/25 08:32:05;;;;;;;2.43;1.53;;;;;;;;;;5032465;28;20032;-64
2023/01/25 08:34:32;;;;;;;1.83;1.53;;;;;;;;;;5032110;28;20017;-64
2023/01/25 08:36:58;;;;;;;2.53;1.90;;;;;;;;;;5032272;28;20018;-64
2023/01/25 08:39:26;;;;;;;5.27;3.00;;;;;;;;;;5031777;28;20021;-64
2023/01/25 08:41:52;;;;;;;4.30;2.83;;;;;;;;;;5030612;28;20484;-64
2023/01/25 08:44:24;;;;;;;2.80;1.87;;;;;;;;;;5026877;28;20056;-64
2023/01/25 08:46:52;;;;;;;2.10;1.70;;;;;;;;;;5027005;28;20104;-64
2023/01/25 08:49:18;;;;;;;2.93;2.13;;;;;;;;;;5026736;28;20025;-64
2023/01/25 08:51:46;;;;;;;6.83;3.43;;;;;;;;;;5028087;28;20480;-64
2023/01/25 08:54:13;;;;;;;5.43;3.47;;;;;;;;;;5031385;28;20301;-63
2023/01/25 08:56:40;;;;;;;4.20;2.47;;;;;;;;;;5032177;28;20093;-64
2023/01/25 08:59:08;;;;;;;4.30;2.40;;;;;;;;;;5032412;28;20940;-64
2023/01/25 09:01:35;;;;;;;5.03;3.73;;;;;;;;;;5032048;28;20270;-63
2023/01/25 09:04:02;;;;;;;9.93;3.67;;;;;;;;;;5030787;28;20298;-63
2023/01/25 09:06:28;;;;;;;4.53;2.97;;;;;;;;;;5026611;28;20112;-64
2023/01/25 09:08:55;;;;;;;4.17;3.30;;;;;;;;;;5026961;28;20052;-65
2023/01/25 09:11:22;;;;;;;7.37;3.57;;;;;;;;;;5026398;28;20037;-65
2023/01/25 09:13:49;;;;;;;6.13;3.60;;;;;;;;;;5026841;28;20087;-65
2023/01/25 09:16:26;;;;;;;7.90;3.03;;;;;;;;;;5032393;28;20696;-65
2023/01/25 09:18:54;;;;;;;4.67;3.83;;;;;;;;;;5035752;28;20263;-65
2023/01/25 09:21:20;;;;;;;8.60;3.63;;;;;;;;;;5035834;28;20338;-65
2023/01/25 09:23:51;;;;;;;11.50;3.90;;;;;;;;;;5035461;28;20684;-65
2023/01/25 09:26:18;;;;;;;4.90;3.10;;;;;;;;;;5033935;28;20255;-65
2023/01/25 09:28:49;;;;;;;4.47;2.83;;;;;;;;;;5030236;28;20294;-64
2023/01/25 09:31:16;;;;;;;7.20;3.43;;;;;;;;;;5030466;28;20748;-64
2023/01/25 09:33:43;;;;;;;7.63;3.30;;;;;;;;;;5030083;28;20342;-65
2023/01/25 09:36:09;;;;;;;5.60;2.87;;;;;;;;;;5030907;28;20263;-64
2023/01/25 09:38:36;;;;;;;3.83;2.33;;;;;;;;;;5035634;28;20733;-65
2023/01/25 09:41:09;;;;;;;4.37;2.90;;;;;;;;;;5034915;28;20275;-65
2023/01/25 09:43:59;;;;;;;2.73;2.00;;;;;;;;;;5035235;28;20274;-65
2023/01/25 09:46:26;;;;;;;5.17;3.40;;;;;;;;;;5035110;28;20293;-64
2023/01/25 09:49:07;;;;;;;2.83;2.17;;;;;;;;;;5033263;28;20799;-65
2023/01/25 09:51:48;;;;;;;5.87;3.17;;;;;;;;;;5029938;28;20259;-64
2023/01/25 09:54:17;;;;;;;10.37;3.23;;;;;;;;;;5029655;28;20369;-66
2023/01/25 09:56:43;;;;;;;3.23;2.40;;;;;;;;;;5030024;28;20285;-64
2023/01/25 09:59:16;;;;;;;7.40;3.60;;;;;;;;;;5032062;28;20259;-64
2023/01/25 10:02:08;;;;;;;3.53;2.50;;;;;;;;;;5035130;28;20250;-64
2023/01/25 10:04:40;;;;;;;4.57;2.37;;;;;;;;;;4999317;28;20382;-64
2023/01/25 10:07:27;;;;;;;2.90;2.20;;;;;;;;;;5015037;28;20654;-64
2023/01/25 10:10:00;;;;;;;3.03;2.13;;;;;;;;;;5014833;28;20269;-65
2023/01/25 10:12:28;;;;;;;2.63;1.97;;;;;;;;;;5010250;28;20662;-64
2023/01/25 10:14:55;;;;;;;5.63;2.80;;;;;;;;;;5027598;28;20720;-64
2023/01/25 10:17:37;;;;;;;1.70;1.30;;;;;;;;;;5029444;28;20266;-64
2023/01/25 10:20:03;;;;;;;5.70;3.57;;;;;;;;;;5029479;28;20261;-64
2023/01/25 10:22:35;;;;;;;4.20;2.80;;;;;;;;;;5034164;28;20312;-65
2023/01/25 10:25:10;;;;;;;4.50;3.37;;;;;;;;;;5034505;28;20298;-64
2023/01/25 10:27:45;;;;;;;5.80;4.30;;;;;;;;;;5034192;28;20306;-64
2023/01/25 10:30:25;;;;;;;4.78;3.10;;;;;;;;;;5034203;28;20255;-64
2023/01/25 10:32:53;;;;;;;3.20;2.70;;;;;;;;;;5033543;28;20022;-64
2023/01/25 10:35:22;;;;;;;21.97;3.20;;;;;;;;;;5009424;28;20264;-65
2023/01/25 10:37:50;;;;;;;4.90;2.77;;;;;;;;;;5009417;28;20266;-64
2023/01/25 10:40:23;;;;;;;3.83;2.83;;;;;;;;;;5009266;28;20314;-64
2023/01/25 10:43:00;;;;;;;4.50;2.87;;;;;;;;;;5009471;28;20251;-64
2023/01/25 10:45:27;;;;;;;6.10;3.40;;;;;;;;;;5014598;28;20280;-64
2023/01/25 10:48:02;;;;;;;5.03;3.60;;;;;;;;;;5014449;28;20695;-64
2023/01/25 10:50:41;;;;;;;36.10;4.32;;;;;;;;;;5014300;28;20265;-64
2023/01/25 10:53:20;;;;;;;4.33;2.13;;;;;;;;;;5016109;28;20101;-64
2023/01/25 10:56:05;;;;;;;3.87;2.03;;;;;;;;;;5031755;28;20605;-64
2023/01/25 10:58:42;;;;;;;2.13;1.60;;;;;;;;;;5028963;28;20251;-64
2023/01/25 11:01:13;;;;;;;6.10;3.27;;;;;;;;;;5028288;28;20036;-64
2023/01/25 11:03:43;;;;;;;5.07;2.80;;;;;;;;;;5028799;28;20265;-64
2023/01/25 11:06:10;;;;;;;7.93;3.13;;;;;;;;;;5031478;28;20263;-64
2023/01/25 11:08:38;;;;;;;16.50;2.67;;;;;;;;;;5032974;28;20785;-65
2023/01/25 11:11:17;;;;;;;8.97;5.40;;;;;;;;;;5033910;28;20246;-64
2023/01/25 11:13:44;;;;;;;8.27;4.53;;;;;;;;;;5033912;28;20259;-64
2023/01/25 11:16:17;;;;;;;15.53;4.93;;;;;;;;;;5033752;28;20258;-64
2023/01/25 11:18:53;;;;;;;9.27;3.80;;;;;;;;;;5029458;28;20253;-64
2023/01/25 11:21:22;;;;;;;9.03;4.97;;;;;;;;;;5028401;28;20301;-64
2023/01/25 11:23:59;;;;;;;5.73;3.57;;;;;;;;;;5028181;28;20262;-64
2023/01/25 11:26:26;;;;;;;5.83;3.47;;;;;;;;;;5028073;28;20255;-64
2023/01/25 11:29:06;;;;;;;7.83;4.67;;;;;;;;;;5031766;28;20623;-64
2023/01/25 11:31:33;;;;;;;11.67;6.20;;;;;;;;;;5033387;28;20251;-64
2023/01/25 11:34:00;;;;;;;4.73;3.17;;;;;;;;;;5033296;28;20262;-64
2023/01/25 11:36:42;;;;;;;5.80;3.07;;;;;;;;;;5033432;28;20308;-64
2023/01/25 11:39:08;;;;;;;13.40;3.87;;;;;;;;;;5033114;28;20329;-64
2023/01/25 11:41:53;;;;;;;6.40;2.87;;;;;;;;;;5026658;28;20267;-64
2023/01/25 11:44:20;;;;;;;5.18;3.45;;;;;;;;;;5027964;28;20262;-64
2023/01/25 11:46:59;;;;;;;6.30;2.80;;;;;;;;;;5027940;28;20021;-64
2023/01/25 11:49:31;;;;;;;7.83;3.30;;;;;;;;;;5027712;28;20360;-64
2023/01/25 11:51:58;;;;;;;18.80;3.53;;;;;;;;;;5032505;28;20270;-64
2023/01/25 11:54:30;;;;;;;9.00;3.57;;;;;;;;;;5033069;28;20247;-65
2023/01/25 11:56:57;;;;;;;2.40;2.17;;;;;;;;;;5032869;28;20255;-64
2023/01/25 11:59:39;;;;;;;5.13;2.90;;;;;;;;;;5032526;28;20262;-64
2023/01/25 12:02:24;;;;;;;10.40;3.93;;;;;;;;;;5031580;28;20269;-64
2023/01/25 12:04:51;;;;;;;5.53;3.75;;;;;;;;;;5027506;28;20320;-64
2023/01/25 12:07:18;;;;;;;6.00;3.87;;;;;;;;;;5027477;28;20177;-64
2023/01/25 12:09:53;;;;;;;7.50;4.83;;;;;;;;;;5026980;28;20262;-64
2023/01/25 12:12:20;;;;;;;4.43;3.20;;;;;;;;;;5029052;28;20265;-64
2023/01/25 12:15:05;;;;;;;22.10;5.53;;;;;;;;;;5032723;28;20255;-64
2023/01/25 12:17:41;;;;;;;7.05;3.70;;;;;;;;;;5032463;28;20273;-64
2023/01/25 12:20:19;;;;;;;9.90;3.70;;;;;;;;;;5032722;28;20021;-66
2023/01/25 12:23:01;;;;;;;4.67;2.73;;;;;;;;;;5032373;28;20283;-64
2023/01/25 12:25:32;;;;;;;4.07;2.57;;;;;;;;;;5028446;28;20358;-64
2023/01/25 12:28:06;;;;;;;6.53;2.57;;;;;;;;;;5027306;28;20835;-64
2023/01/25 12:30:45;;;;;;;3.33;1.88;;;;;;;;;;5027271;28;20254;-64
2023/01/25 12:33:21;;;;;;;2.30;2.03;;;;;;;;;;5027081;28;20463;-65
2023/01/25 12:36:00;;;;;;;5.90;4.07;;;;;;;;;;5030989;28;20361;-64
2023/01/25 12:38:30;;;;;;;15.37;3.77;;;;;;;;;;5032469;28;20258;-65
2023/01/25 12:41:02;;;;;;;4.10;2.50;;;;;;;;;;5032061;28;20273;-64
2023/01/25 12:43:35;;;;;;;5.23;3.50;;;;;;;;;;5031816;28;20266;-64
2023/01/25 12:46:12;;;;;;;5.90;4.40;;;;;;;;;;5032302;28;20625;-64
2023/01/25 12:48:41;;;;;;;7.90;4.87;;;;;;;;;;5026820;28;20315;-64
2023/01/25 12:51:08;;;;;;;6.83;4.23;;;;;;;;;;5027714;28;20258;-64
2023/01/25 12:53:40;;;;;;;13.10;7.67;;;;;;;;;;5033120;28;20775;-65
2023/01/25 12:56:08;;;;;;;4.87;3.43;;;;;;;;;;5033526;28;20266;-64
2023/01/25 12:58:44;;;;;;;10.10;5.50;;;;;;;;;;5038823;28;20605;-64
2023/01/25 13:01:48;;;;;;;8.60;3.90;;;;;;;;;;5038622;28;20255;-66
2023/01/25 13:04:14;;;;;;;8.57;6.17;;;;;;;;;;4977407;28;20304;-63
2023/01/25 13:06:46;;;;;;;10.57;4.20;;;;;;;;;;5011159;28;20257;-63
2023/01/25 13:09:16;;;;;;;6.20;3.57;;;;;;;;;;5016573;28;20294;-63
2023/01/25 13:11:44;;;;;;;18.07;5.77;;;;;;;;;;5013194;28;20259;-62
2023/01/25 13:14:17;;;;;;;18.10;7.30;;;;;;;;;;5031037;28;20279;-63
2023/01/25 13:16:50;;;;;;;5.40;4.03;;;;;;;;;;5033091;28;20274;-63
2023/01/25 13:19:41;;;;;;;22.37;3.13;;;;;;;;;;5035342;28;20336;-65
2023/01/25 13:22:09;;;;;;;13.67;6.40;;;;;;;;;;5038483;28;20253;-63
2023/01/25 13:24:56;;;;;;;6.40;4.13;;;;;;;;;;5038201;28;20276;-64
2023/01/25 13:27:27;;;;;;;9.43;6.27;;;;;;;;;;5038250;28;20278;-63
2023/01/25 13:29:56;;;;;;;24.47;6.80;;;;;;;;;;5037853;28;20270;-63
2023/01/25 13:32:26;;;;;;;4.40;3.67;;;;;;;;;;5033929;28;20704;-63
2023/01/25 13:34:52;;;;;;;11.23;5.83;;;;;;;;;;5032712;28;20263;-63
2023/01/25 13:37:24;;;;;;;14.90;6.53;;;;;;;;;;5032454;28;20286;-62
2023/01/25 13:40:26;;;;;;;12.27;4.47;;;;;;;;;;5032398;28;20375;-63
2023/01/25 13:43:25;;;;;;;6.77;4.23;;;;;;;;;;4995689;28;20264;-63
2023/01/25 13:45:52;;;;;;;8.63;6.30;;;;;;;;;;4994909;28;20282;-65
2023/01/25 13:48:23;;;;;;;10.90;7.37;;;;;;;;;;5037677;28;20672;-63
2023/01/25 13:50:59;;;;;;;11.23;5.70;;;;;;;;;;5037931;28;20259;-63
2023/01/25 13:53:34;;;;;;;11.00;5.80;;;;;;;;;;5036407;28;20601;-63
2023/01/25 13:56:01;;;;;;;6.30;4.95;;;;;;;;;;5032444;28;20266;-63
2023/01/25 13:58:31;;;;;;;19.03;6.83;;;;;;;;;;5032531;28;20041;-63
2023/01/25 14:01:06;;;;;;;5.57;4.30;;;;;;;;;;5033000;28;20662;-63
2023/01/25 14:03:47;;;;;;;10.35;5.63;;;;;;;;;;5030478;28;20267;-63
2023/01/25 14:06:22;;;;;;;10.37;5.57;;;;;;;;;;5034476;28;20033;-63
2023/01/25 14:08:49;;;;;;;15.63;7.60;;;;;;;;;;5034728;28;20301;-63
2023/01/25 14:11:25;;;;;;;26.60;6.03;;;;;;;;;;5034958;28;20515;-63
2023/01/25 14:14:19;;;;;;;12.63;5.20;;;;;;;;;;5034654;28;20772;-63
2023/01/25 14:16:46;;;;;;;11.30;5.00;;;;;;;;;;5029093;28;20298;-64
2023/01/25 14:19:28;;;;;;;12.27;4.50;;;;;;;;;;5029335;28;20267;-63
2023/01/25 14:22:13;;;;;;;23.47;4.73;;;;;;;;;;5029212;28;20084;-64
2023/01/25 14:24:40;;;;;;;15.65;5.15;;;;;;;;;;5029006;28;20052;-64
2023/01/25 14:27:06;;;;;;;10.33;5.13;;;;;;;;;;5033929;28;20025;-64
2023/01/25 14:29:34;;;;;;;6.27;3.17;;;;;;;;;;5034601;28;20037;-64
2023/01/25 14:32:01;;;;;;;6.17;4.07;;;;;;;;;;5034312;28;20037;-64
2023/01/25 14:34:27;;;;;;;34.30;4.83;;;;;;;;;;5034661;28;20353;-64
2023/01/25 14:37:29;;;;;;;17.67;4.13;;;;;;;;;;5034351;28;20087;-64
2023/01/25 14:39:56;;;;;;;4.83;2.30;;;;;;;;;;4967600;28;20030;-64
2023/01/25 14:42:23;;;;;;;4.20;3.33;;;;;;;;;;5016637;28;20091;-64
2023/01/25 14:44:49;;;;;;;4.63;3.17;;;;;;;;;;5029132;28;20026;-64
2023/01/25 14:47:29;;;;;;;15.33;4.53;;;;;;;;;;5028316;28;20017;-64
2023/01/25 14:49:55;;;;;;;16.00;3.47;;;;;;;;;;5034218;28;20024;-64
2023/01/25 14:52:24;;;;;;;7.60;3.53;;;;;;;;;;5034213;28;20380;-64
2023/01/25 14:54:53;;;;;;;6.10;3.53;;;;;;;;;;5034104;28;20074;-64
2023/01/25 14:57:36;;;;;;;4.10;2.97;;;;;;;;;;5033714;28;20032;-62